Iowa Park, Texas
Current Conditions -  °F | °C
As of 12:52 PM on Friday 28 Nov 2014 (Local Time) from KSPS Reporting Station
Clear Clear  
Wind Chill: 67°   Ceiling: Unl
Heat Index: 67°   Visibility: 10mi
Dew Point: 42°   Wind: 22mph
Humidity: 40%   Direction: 200°SSW
Pressure: 30"   Gusts: NA
Location:  33.95°N, 98.65°W
Report Text: KSPS 281852Z AUTO 20019KT 10SM CLR 19/06 A3000 RMK AO2 PK WND 21026/1811 SLP154 T01940056 TSNO
Loading
Personal Weather Stations






























Interactive Weather Map New forecast layout! Learn more

10-Day Weather Forecast

Advertisements
Track Severe Weather on mobile